sensor_id;sensor_type;location;lat;lon;timestamp;temperature;humidity
2647;DHT22;1333;50.958;6.770;2022-09-09T00:02:18;16.90;99.90
2647;DHT22;1333;50.958;6.770;2022-09-09T00:04:58;16.90;99.90
2647;DHT22;1333;50.958;6.770;2022-09-09T00:07:49;16.80;99.90
2647;DHT22;1333;50.958;6.770;2022-09-09T00:10:25;16.80;99.90
2647;DHT22;1333;50.958;6.770;2022-09-09T00:15:50;16.80;99.90
2647;DHT22;1333;50.958;6.770;2022-09-09T00:18:51;16.90;99.90
2647;DHT22;1333;50.958;6.770;2022-09-09T00:21:24;16.90;99.90
2647;DHT22;1333;50.958;6.770;2022-09-09T00:23:55;16.90;99.90
2647;DHT22;1333;50.958;6.770;2022-09-09T00:26:35;16.90;99.90
2647;DHT22;1333;50.958;6.770;2022-09-09T00:31:40;16.90;99.90
2647;DHT22;1333;50.958;6.770;2022-09-09T00:34:11;17.00;99.90
2647;DHT22;1333;50.958;6.770;2022-09-09T00:36:39;16.90;99.90
2647;DHT22;1333;50.958;6.770;2022-09-09T00:39:05;16.90;99.90
2647;DHT22;1333;50.958;6.770;2022-09-09T00:44:35;16.70;99.90
2647;DHT22;1333;50.958;6.770;2022-09-09T00:52:25;16.50;99.90
2647;DHT22;1333;50.958;6.770;2022-09-09T00:57:41;16.40;99.90
2647;DHT22;1333;50.958;6.770;2022-09-09T01:06:00;16.40;99.90
2647;DHT22;1333;50.958;6.770;2022-09-09T01:12:14;16.30;99.90
2647;DHT22;1333;50.958;6.770;2022-09-09T01:14:47;16.20;99.90
2647;DHT22;1333;50.958;6.770;2022-09-09T01:17:24;16.10;99.90
2647;DHT22;1333;50.958;6.770;2022-09-09T01:25:21;15.90;99.90
2647;DHT22;1333;50.958;6.770;2022-09-09T01:27:49;15.90;99.90
2647;DHT22;1333;50.958;6.770;2022-09-09T01:30:17;15.90;99.90
2647;DHT22;1333;50.958;6.770;2022-09-09T01:32:49;15.90;99.90
2647;DHT22;1333;50.958;6.770;2022-09-09T01:37:47;15.80;99.90
2647;DHT22;1333;50.958;6.770;2022-09-09T01:40:13;15.70;99.90
2647;DHT22;1333;50.958;6.770;2022-09-09T01:42:38;15.70;99.90
2647;DHT22;1333;50.958;6.770;2022-09-09T01:45:04;15.70;99.90
2647;DHT22;1333;50.958;6.770;2022-09-09T01:47:30;15.70;99.90
2647;DHT22;1333;50.958;6.770;2022-09-09T01:49:55;15.70;99.90
2647;DHT22;1333;50.958;6.770;2022-09-09T01:52:21;15.60;99.90
2647;DHT22;1333;50.958;6.770;2022-09-09T01:54:47;15.60;99.90
2647;DHT22;1333;50.958;6.770;2022-09-09T01:57:25;15.60;99.90
2647;DHT22;1333;50.958;6.770;2022-09-09T02:00:09;15.70;99.90
2647;DHT22;1333;50.958;6.770;2022-09-09T02:05:52;15.70;99.90
2647;DHT22;1333;50.958;6.770;2022-09-09T02:08:24;15.70;99.90
2647;DHT22;1333;50.958;6.770;2022-09-09T02:11:07;15.80;99.90
2647;DHT22;1333;50.958;6.770;2022-09-09T02:13:37;15.80;99.90
2647;DHT22;1333;50.958;6.770;2022-09-09T02:16:07;15.80;99.90
2647;DHT22;1333;50.958;6.770;2022-09-09T02:18:42;15.90;99.90
2647;DHT22;1333;50.958;6.770;2022-09-09T02:21:11;15.90;99.90
2647;DHT22;1333;50.958;6.770;2022-09-09T02:23:40;15.90;99.90
2647;DHT22;1333;50.958;6.770;2022-09-09T02:26:07;15.90;99.90
2647;DHT22;1333;50.958;6.770;2022-09-09T02:28:33;15.90;99.90
2647;DHT22;1333;50.958;6.770;2022-09-09T02:31:00;15.90;99.90
2647;DHT22;1333;50.958;6.770;2022-09-09T02:33:30;15.80;99.90
2647;DHT22;1333;50.958;6.770;2022-09-09T02:35:58;15.80;99.90
2647;DHT22;1333;50.958;6.770;2022-09-09T02:38:30;15.80;99.90
2647;DHT22;1333;50.958;6.770;2022-09-09T02:40:58;15.80;99.90
2647;DHT22;1333;50.958;6.770;2022-09-09T02:43:24;15.80;99.90
2647;DHT22;1333;50.958;6.770;2022-09-09T02:48:52;15.80;99.90
2647;DHT22;1333;50.958;6.770;2022-09-09T02:51:56;15.80;99.90
2647;DHT22;1333;50.958;6.770;2022-09-09T02:54:28;15.80;99.90
2647;DHT22;1333;50.958;6.770;2022-09-09T02:57:19;15.80;99.90
2647;DHT22;1333;50.958;6.770;2022-09-09T02:59:47;15.90;99.90
2647;DHT22;1333;50.958;6.770;2022-09-09T03:02:13;15.90;99.90
2647;DHT22;1333;50.958;6.770;2022-09-09T03:04:39;15.90;99.90
2647;DHT22;1333;50.958;6.770;2022-09-09T03:07:05;16.00;99.90
2647;DHT22;1333;50.958;6.770;2022-09-09T03:09:30;16.00;99.90
2647;DHT22;1333;50.958;6.770;2022-09-09T03:11:58;16.00;99.90
2647;DHT22;1333;50.958;6.770;2022-09-09T03:14:24;16.10;99.90
2647;DHT22;1333;50.958;6.770;2022-09-09T03:16:53;16.10;99.90
2647;DHT22;1333;50.958;6.770;2022-09-09T03:19:20;16.20;99.90
2647;DHT22;1333;50.958;6.770;2022-09-09T03:21:46;16.20;99.90
2647;DHT22;1333;50.958;6.770;2022-09-09T03:24:13;16.20;99.90
2647;DHT22;1333;50.958;6.770;2022-09-09T03:26:39;16.20;99.90
2647;DHT22;1333;50.958;6.770;2022-09-09T03:29:06;16.30;99.90
2647;DHT22;1333;50.958;6.770;2022-09-09T03:31:35;16.30;99.90
2647;DHT22;1333;50.958;6.770;2022-09-09T03:34:01;16.30;99.90
2647;DHT22;1333;50.958;6.770;2022-09-09T03:36:27;16.30;99.90
2647;DHT22;1333;50.958;6.770;2022-09-09T03:38:54;16.30;99.90
2647;DHT22;1333;50.958;6.770;2022-09-09T03:41:21;16.30;99.90
2647;DHT22;1333;50.958;6.770;2022-09-09T03:43:52;16.30;99.90
2647;DHT22;1333;50.958;6.770;2022-09-09T03:46:19;16.30;99.90
2647;DHT22;1333;50.958;6.770;2022-09-09T03:48:44;16.40;99.90
2647;DHT22;1333;50.958;6.770;2022-09-09T03:51:10;16.40;99.90
2647;DHT22;1333;50.958;6.770;2022-09-09T03:53:36;16.40;99.90
2647;DHT22;1333;50.958;6.770;2022-09-09T03:56:03;16.40;99.90
2647;DHT22;1333;50.958;6.770;2022-09-09T03:58:29;16.40;99.90
2647;DHT22;1333;50.958;6.770;2022-09-09T04:01:02;16.40;99.90
2647;DHT22;1333;50.958;6.770;2022-09-09T04:03:28;16.40;99.90
2647;DHT22;1333;50.958;6.770;2022-09-09T04:05:55;16.50;99.90
2647;DHT22;1333;50.958;6.770;2022-09-09T04:08:21;16.50;99.90
2647;DHT22;1333;50.958;6.770;2022-09-09T04:10:48;16.50;99.90
2647;DHT22;1333;50.958;6.770;2022-09-09T04:13:15;16.60;99.90
2647;DHT22;1333;50.958;6.770;2022-09-09T04:15:41;16.60;99.90
2647;DHT22;1333;50.958;6.770;2022-09-09T04:18:07;16.60;99.90
2647;DHT22;1333;50.958;6.770;2022-09-09T04:20:33;16.70;99.90
2647;DHT22;1333;50.958;6.770;2022-09-09T04:22:59;16.70;99.90
2647;DHT22;1333;50.958;6.770;2022-09-09T04:25:25;16.70;99.90
2647;DHT22;1333;50.958;6.770;2022-09-09T04:27:54;16.70;99.90
2647;DHT22;1333;50.958;6.770;2022-09-09T04:30:20;16.70;99.90
2647;DHT22;1333;50.958;6.770;2022-09-09T04:32:46;16.70;99.90
2647;DHT22;1333;50.958;6.770;2022-09-09T04:35:11;16.80;99.90
2647;DHT22;1333;50.958;6.770;2022-09-09T04:37:37;16.70;99.90
2647;DHT22;1333;50.958;6.770;2022-09-09T04:40:03;16.70;99.90
2647;DHT22;1333;50.958;6.770;2022-09-09T04:42:28;16.70;99.90
2647;DHT22;1333;50.958;6.770;2022-09-09T04:44:54;16.70;99.90
2647;DHT22;1333;50.958;6.770;2022-09-09T04:47:19;16.70;99.90
2647;DHT22;1333;50.958;6.770;2022-09-09T04:49:45;16.70;99.90
2647;DHT22;1333;50.958;6.770;2022-09-09T04:52:11;16.70;99.90
2647;DHT22;1333;50.958;6.770;2022-09-09T04:54:36;16.70;99.90
2647;DHT22;1333;50.958;6.770;2022-09-09T04:57:02;16.70;99.90
2647;DHT22;1333;50.958;6.770;2022-09-09T04:59:28;16.80;99.90
2647;DHT22;1333;50.958;6.770;2022-09-09T05:01:53;16.70;99.90
2647;DHT22;1333;50.958;6.770;2022-09-09T05:04:21;16.80;99.90
2647;DHT22;1333;50.958;6.770;2022-09-09T05:06:46;16.90;99.90
2647;DHT22;1333;50.958;6.770;2022-09-09T05:09:12;16.90;99.90
2647;DHT22;1333;50.958;6.770;2022-09-09T05:11:37;16.90;99.90
2647;DHT22;1333;50.958;6.770;2022-09-09T05:14:03;17.00;99.90
2647;DHT22;1333;50.958;6.770;2022-09-09T05:16:29;16.90;99.90
2647;DHT22;1333;50.958;6.770;2022-09-09T05:18:55;17.00;99.90
2647;DHT22;1333;50.958;6.770;2022-09-09T05:21:23;17.00;99.90
2647;DHT22;1333;50.958;6.770;2022-09-09T05:23:50;16.90;99.90
2647;DHT22;1333;50.958;6.770;2022-09-09T05:26:18;17.00;99.90
2647;DHT22;1333;50.958;6.770;2022-09-09T05:28:44;17.00;99.90
2647;DHT22;1333;50.958;6.770;2022-09-09T05:31:11;17.00;99.90
2647;DHT22;1333;50.958;6.770;2022-09-09T05:33:39;17.10;99.90
2647;DHT22;1333;50.958;6.770;2022-09-09T05:36:10;17.10;99.90
2647;DHT22;1333;50.958;6.770;2022-09-09T05:38:38;17.10;99.90
2647;DHT22;1333;50.958;6.770;2022-09-09T05:41:04;17.20;99.90
2647;DHT22;1333;50.958;6.770;2022-09-09T05:43:30;17.20;99.90
2647;DHT22;1333;50.958;6.770;2022-09-09T05:48:38;17.30;99.90
2647;DHT22;1333;50.958;6.770;2022-09-09T05:51:05;17.30;99.90
2647;DHT22;1333;50.958;6.770;2022-09-09T05:53:35;17.30;99.90
2647;DHT22;1333;50.958;6.770;2022-09-09T05:56:12;17.40;99.90
2647;DHT22;1333;50.958;6.770;2022-09-09T05:58:40;17.50;99.90
2647;DHT22;1333;50.958;6.770;2022-09-09T06:01:14;17.50;99.90
2647;DHT22;1333;50.958;6.770;2022-09-09T06:03:41;17.50;99.90
2647;DHT22;1333;50.958;6.770;2022-09-09T06:06:09;17.60;99.90
2647;DHT22;1333;50.958;6.770;2022-09-09T06:08:38;17.60;99.90
2647;DHT22;1333;50.958;6.770;2022-09-09T06:13:30;17.60;99.90
2647;DHT22;1333;50.958;6.770;2022-09-09T06:15:56;17.60;99.90
2647;DHT22;1333;50.958;6.770;2022-09-09T06:18:22;17.60;99.90
2647;DHT22;1333;50.958;6.770;2022-09-09T06:20:58;17.60;99.90
2647;DHT22;1333;50.958;6.770;2022-09-09T06:23:24;17.50;99.90
2647;DHT22;1333;50.958;6.770;2022-09-09T06:25:50;17.50;99.90
2647;DHT22;1333;50.958;6.770;2022-09-09T06:28:17;17.60;99.90
2647;DHT22;1333;50.958;6.770;2022-09-09T06:30:43;17.90;99.90
2647;DHT22;1333;50.958;6.770;2022-09-09T06:33:08;17.90;99.90
2647;DHT22;1333;50.958;6.770;2022-09-09T06:35:34;18.00;99.90
2647;DHT22;1333;50.958;6.770;2022-09-09T06:38:00;17.90;99.90
2647;DHT22;1333;50.958;6.770;2022-09-09T06:40:26;17.90;99.90
2647;DHT22;1333;50.958;6.770;2022-09-09T06:42:51;18.00;99.90
2647;DHT22;1333;50.958;6.770;2022-09-09T06:45:17;18.10;99.90
2647;DHT22;1333;50.958;6.770;2022-09-09T06:47:43;18.40;99.90
2647;DHT22;1333;50.958;6.770;2022-09-09T06:50:09;18.70;99.90
2647;DHT22;1333;50.958;6.770;2022-09-09T06:52:35;19.00;99.90
2647;DHT22;1333;50.958;6.770;2022-09-09T06:55:01;19.20;99.90
2647;DHT22;1333;50.958;6.770;2022-09-09T06:57:28;19.40;99.90
2647;DHT22;1333;50.958;6.770;2022-09-09T06:59:53;19.50;99.90
2647;DHT22;1333;50.958;6.770;2022-09-09T07:02:19;19.70;99.90
2647;DHT22;1333;50.958;6.770;2022-09-09T07:04:45;19.80;99.90
2647;DHT22;1333;50.958;6.770;2022-09-09T07:07:10;19.60;99.90
2647;DHT22;1333;50.958;6.770;2022-09-09T07:09:39;19.60;99.90
2647;DHT22;1333;50.958;6.770;2022-09-09T07:12:05;19.50;99.90
2647;DHT22;1333;50.958;6.770;2022-09-09T07:14:31;19.50;99.90
2647;DHT22;1333;50.958;6.770;2022-09-09T07:16:58;19.60;99.90
2647;DHT22;1333;50.958;6.770;2022-09-09T07:19:23;19.80;99.90
2647;DHT22;1333;50.958;6.770;2022-09-09T07:21:49;20.00;99.90
2647;DHT22;1333;50.958;6.770;2022-09-09T07:24:15;20.30;99.90
2647;DHT22;1333;50.958;6.770;2022-09-09T07:26:41;20.50;99.90
2647;DHT22;1333;50.958;6.770;2022-09-09T07:29:07;20.90;99.90
2647;DHT22;1333;50.958;6.770;2022-09-09T07:31:35;21.40;99.90
2647;DHT22;1333;50.958;6.770;2022-09-09T07:34:02;21.80;99.90
2647;DHT22;1333;50.958;6.770;2022-09-09T07:36:30;22.00;99.90
2647;DHT22;1333;50.958;6.770;2022-09-09T07:38:59;22.00;99.90
2647;DHT22;1333;50.958;6.770;2022-09-09T07:41:45;22.00;99.90
2647;DHT22;1333;50.958;6.770;2022-09-09T07:44:14;22.50;99.90
2647;DHT22;1333;50.958;6.770;2022-09-09T07:46:40;23.10;99.90
2647;DHT22;1333;50.958;6.770;2022-09-09T07:49:07;23.70;99.90
2647;DHT22;1333;50.958;6.770;2022-09-09T07:51:35;23.70;99.90
2647;DHT22;1333;50.958;6.770;2022-09-09T07:54:04;23.70;99.90
2647;DHT22;1333;50.958;6.770;2022-09-09T07:56:31;23.30;99.90
2647;DHT22;1333;50.958;6.770;2022-09-09T07:58:58;23.20;99.90
2647;DHT22;1333;50.958;6.770;2022-09-09T08:01:29;23.10;99.90
2647;DHT22;1333;50.958;6.770;2022-09-09T08:04:03;22.90;99.90
2647;DHT22;1333;50.958;6.770;2022-09-09T08:06:33;22.70;99.90
2647;DHT22;1333;50.958;6.770;2022-09-09T08:08:59;22.50;99.90
2647;DHT22;1333;50.958;6.770;2022-09-09T08:11:27;22.60;99.90
2647;DHT22;1333;50.958;6.770;2022-09-09T08:13:53;22.80;99.90
2647;DHT22;1333;50.958;6.770;2022-09-09T08:16:21;22.70;99.90
2647;DHT22;1333;50.958;6.770;2022-09-09T08:18:48;22.50;99.90
2647;DHT22;1333;50.958;6.770;2022-09-09T08:21:16;22.90;99.90
2647;DHT22;1333;50.958;6.770;2022-09-09T08:23:44;23.00;99.90
2647;DHT22;1333;50.958;6.770;2022-09-09T08:26:16;22.80;99.90
2647;DHT22;1333;50.958;6.770;2022-09-09T08:28:43;22.70;99.90
2647;DHT22;1333;50.958;6.770;2022-09-09T08:31:14;22.60;99.90
2647;DHT22;1333;50.958;6.770;2022-09-09T08:33:41;22.70;99.90
2647;DHT22;1333;50.958;6.770;2022-09-09T08:36:10;22.90;99.90
2647;DHT22;1333;50.958;6.770;2022-09-09T08:38:36;23.20;99.90
2647;DHT22;1333;50.958;6.770;2022-09-09T08:49:50;25.10;94.80
2647;DHT22;1333;50.958;6.770;2022-09-09T08:52:20;26.40;84.00
2647;DHT22;1333;50.958;6.770;2022-09-09T08:54:47;26.60;73.70
2647;DHT22;1333;50.958;6.770;2022-09-09T08:57:23;26.40;70.60
2647;DHT22;1333;50.958;6.770;2022-09-09T08:59:52;25.90;69.70
2647;DHT22;1333;50.958;6.770;2022-09-09T09:10:45;24.90;74.80
2647;DHT22;1333;50.958;6.770;2022-09-09T09:13:19;24.50;74.20
2647;DHT22;1333;50.958;6.770;2022-09-09T09:15:50;24.20;79.70
2647;DHT22;1333;50.958;6.770;2022-09-09T09:18:17;23.70;81.90
2647;DHT22;1333;50.958;6.770;2022-09-09T09:20:54;23.20;82.80
2647;DHT22;1333;50.958;6.770;2022-09-09T09:23:25;22.80;89.20
2647;DHT22;1333;50.958;6.770;2022-09-09T09:25:56;22.50;92.90
2647;DHT22;1333;50.958;6.770;2022-09-09T09:28:29;22.40;94.70
2647;DHT22;1333;50.958;6.770;2022-09-09T09:31:09;22.30;98.70
2647;DHT22;1333;50.958;6.770;2022-09-09T09:33:47;21.90;99.90
2647;DHT22;1333;50.958;6.770;2022-09-09T09:36:13;21.70;99.90
2647;DHT22;1333;50.958;6.770;2022-09-09T09:39:01;21.50;99.90
2647;DHT22;1333;50.958;6.770;2022-09-09T09:41:38;21.50;99.90
2647;DHT22;1333;50.958;6.770;2022-09-09T09:44:06;21.50;99.90
2647;DHT22;1333;50.958;6.770;2022-09-09T09:46:45;21.60;99.90
2647;DHT22;1333;50.958;6.770;2022-09-09T09:49:10;21.70;99.90
2647;DHT22;1333;50.958;6.770;2022-09-09T09:51:36;21.80;99.90
2647;DHT22;1333;50.958;6.770;2022-09-09T09:54:33;21.80;99.90
2647;DHT22;1333;50.958;6.770;2022-09-09T09:57:13;22.00;99.90
2647;DHT22;1333;50.958;6.770;2022-09-09T09:59:40;22.30;99.90
2647;DHT22;1333;50.958;6.770;2022-09-09T10:02:18;22.50;99.90
2647;DHT22;1333;50.958;6.770;2022-09-09T10:04:45;22.60;99.90
2647;DHT22;1333;50.958;6.770;2022-09-09T10:07:22;22.90;99.90
2647;DHT22;1333;50.958;6.770;2022-09-09T10:09:55;23.30;99.90
2647;DHT22;1333;50.958;6.770;2022-09-09T10:12:40;23.50;99.90
2647;DHT22;1333;50.958;6.770;2022-09-09T10:18:08;24.00;96.40
2647;DHT22;1333;50.958;6.770;2022-09-09T10:20:44;24.10;96.00
2647;DHT22;1333;50.958;6.770;2022-09-09T10:28:42;23.20;97.20
2647;DHT22;1333;50.958;6.770;2022-09-09T10:31:25;23.00;98.30
2647;DHT22;1333;50.958;6.770;2022-09-09T10:36:31;22.30;99.90
2647;DHT22;1333;50.958;6.770;2022-09-09T10:39:04;22.70;99.90
2647;DHT22;1333;50.958;6.770;2022-09-09T10:55:51;28.20;71.80
2647;DHT22;1333;50.958;6.770;2022-09-09T10:58:23;28.80;66.20
2647;DHT22;1333;50.958;6.770;2022-09-09T11:00:54;28.60;63.80
2647;DHT22;1333;50.958;6.770;2022-09-09T11:03:26;28.10;63.20
2647;DHT22;1333;50.958;6.770;2022-09-09T11:06:05;27.50;63.70
2647;DHT22;1333;50.958;6.770;2022-09-09T11:08:34;26.80;67.40
2647;DHT22;1333;50.958;6.770;2022-09-09T11:11:25;26.20;65.10
2647;DHT22;1333;50.958;6.770;2022-09-09T11:16:29;24.50;76.70
2647;DHT22;1333;50.958;6.770;2022-09-09T11:19:04;23.80;80.40
2647;DHT22;1333;50.958;6.770;2022-09-09T11:21:41;23.20;89.90
2647;DHT22;1333;50.958;6.770;2022-09-09T11:26:55;23.10;94.50
2647;DHT22;1333;50.958;6.770;2022-09-09T11:29:40;23.20;96.30
2647;DHT22;1333;50.958;6.770;2022-09-09T11:35:07;22.50;96.40
2647;DHT22;1333;50.958;6.770;2022-09-09T11:40:32;22.30;99.90
2647;DHT22;1333;50.958;6.770;2022-09-09T11:45:34;22.20;99.90
2647;DHT22;1333;50.958;6.770;2022-09-09T11:48:02;22.10;99.90
2647;DHT22;1333;50.958;6.770;2022-09-09T11:50:33;21.90;99.90
2647;DHT22;1333;50.958;6.770;2022-09-09T11:53:05;21.80;99.90
2647;DHT22;1333;50.958;6.770;2022-09-09T11:55:40;21.70;99.90
2647;DHT22;1333;50.958;6.770;2022-09-09T12:00:41;21.70;99.90
2647;DHT22;1333;50.958;6.770;2022-09-09T12:03:33;21.60;99.90
2647;DHT22;1333;50.958;6.770;2022-09-09T12:06:17;21.50;99.90
2647;DHT22;1333;50.958;6.770;2022-09-09T12:08:51;21.40;99.90
2647;DHT22;1333;50.958;6.770;2022-09-09T12:11:29;21.40;99.90
2647;DHT22;1333;50.958;6.770;2022-09-09T12:13:58;21.50;99.90
2647;DHT22;1333;50.958;6.770;2022-09-09T12:16:34;21.60;99.90
2647;DHT22;1333;50.958;6.770;2022-09-09T12:19:14;21.80;99.90
2647;DHT22;1333;50.958;6.770;2022-09-09T12:24:35;21.90;99.90
2647;DHT22;1333;50.958;6.770;2022-09-09T12:27:11;21.80;99.90
2647;DHT22;1333;50.958;6.770;2022-09-09T12:30:09;21.60;99.90
2647;DHT22;1333;50.958;6.770;2022-09-09T12:32:36;21.60;99.90
2647;DHT22;1333;50.958;6.770;2022-09-09T12:35:09;21.30;99.90
2647;DHT22;1333;50.958;6.770;2022-09-09T12:37:52;21.10;99.90
2647;DHT22;1333;50.958;6.770;2022-09-09T12:40:23;20.80;99.90
2647;DHT22;1333;50.958;6.770;2022-09-09T12:42:49;20.50;99.90
2647;DHT22;1333;50.958;6.770;2022-09-09T12:45:20;20.50;99.90
2647;DHT22;1333;50.958;6.770;2022-09-09T12:47:56;22.00;99.90
2647;DHT22;1333;50.958;6.770;2022-09-09T12:50:35;24.80;99.90
2647;DHT22;1333;50.958;6.770;2022-09-09T12:53:08;27.60;99.90
2647;DHT22;1333;50.958;6.770;2022-09-09T12:55:37;29.80;99.90
2647;DHT22;1333;50.958;6.770;2022-09-09T12:58:05;31.70;93.20
2647;DHT22;1333;50.958;6.770;2022-09-09T13:00:32;32.90;75.10
2647;DHT22;1333;50.958;6.770;2022-09-09T13:03:18;33.10;66.20
2647;DHT22;1333;50.958;6.770;2022-09-09T13:05:45;33.20;61.90
2647;DHT22;1333;50.958;6.770;2022-09-09T13:08:13;32.20;58.20
2647;DHT22;1333;50.958;6.770;2022-09-09T13:11:00;30.70;61.50
2647;DHT22;1333;50.958;6.770;2022-09-09T13:13:38;28.90;64.60
2647;DHT22;1333;50.958;6.770;2022-09-09T13:16:05;27.60;76.20
2647;DHT22;1333;50.958;6.770;2022-09-09T13:18:35;26.40;83.10
2647;DHT22;1333;50.958;6.770;2022-09-09T13:21:02;25.70;93.90
2647;DHT22;1333;50.958;6.770;2022-09-09T13:23:30;25.20;99.90
2647;DHT22;1333;50.958;6.770;2022-09-09T13:26:02;25.50;99.90
2647;DHT22;1333;50.958;6.770;2022-09-09T13:28:30;25.70;99.90
2647;DHT22;1333;50.958;6.770;2022-09-09T13:30:58;25.70;99.90
2647;DHT22;1333;50.958;6.770;2022-09-09T13:33:33;25.50;99.90
2647;DHT22;1333;50.958;6.770;2022-09-09T13:36:06;25.00;99.90
2647;DHT22;1333;50.958;6.770;2022-09-09T13:38:40;24.60;99.90
2647;DHT22;1333;50.958;6.770;2022-09-09T13:41:09;24.20;99.90
2647;DHT22;1333;50.958;6.770;2022-09-09T13:43:38;24.00;99.90
2647;DHT22;1333;50.958;6.770;2022-09-09T13:46:39;23.80;99.90
2647;DHT22;1333;50.958;6.770;2022-09-09T13:51:42;23.40;99.90
2647;DHT22;1333;50.958;6.770;2022-09-09T13:54:10;23.20;99.90
2647;DHT22;1333;50.958;6.770;2022-09-09T13:56:36;23.00;99.90
2647;DHT22;1333;50.958;6.770;2022-09-09T13:59:05;22.60;99.90
2647;DHT22;1333;50.958;6.770;2022-09-09T14:01:31;22.40;99.90
2647;DHT22;1333;50.958;6.770;2022-09-09T14:03:57;22.30;99.90
2647;DHT22;1333;50.958;6.770;2022-09-09T14:06:22;22.10;99.90
2647;DHT22;1333;50.958;6.770;2022-09-09T14:08:51;21.80;99.90
2647;DHT22;1333;50.958;6.770;2022-09-09T14:11:17;21.70;99.90
2647;DHT22;1333;50.958;6.770;2022-09-09T14:13:43;21.20;99.90
2647;DHT22;1333;50.958;6.770;2022-09-09T14:16:09;20.60;99.90
2647;DHT22;1333;50.958;6.770;2022-09-09T14:18:35;20.10;99.90
2647;DHT22;1333;50.958;6.770;2022-09-09T14:21:01;19.50;99.90
2647;DHT22;1333;50.958;6.770;2022-09-09T14:23:28;19.20;99.90
2647;DHT22;1333;50.958;6.770;2022-09-09T14:25:55;18.80;99.90
2647;DHT22;1333;50.958;6.770;2022-09-09T14:28:20;18.60;99.90
2647;DHT22;1333;50.958;6.770;2022-09-09T14:30:46;18.50;99.90
2647;DHT22;1333;50.958;6.770;2022-09-09T14:33:14;18.40;99.90
2647;DHT22;1333;50.958;6.770;2022-09-09T14:35:39;18.40;99.90
2647;DHT22;1333;50.958;6.770;2022-09-09T14:38:07;18.40;99.90
2647;DHT22;1333;50.958;6.770;2022-09-09T14:40:35;18.60;99.90
2647;DHT22;1333;50.958;6.770;2022-09-09T14:43:00;18.90;99.90
2647;DHT22;1333;50.958;6.770;2022-09-09T14:45:26;19.20;99.90
2647;DHT22;1333;50.958;6.770;2022-09-09T14:47:52;19.60;99.90
2647;DHT22;1333;50.958;6.770;2022-09-09T14:50:19;19.80;99.90
2647;DHT22;1333;50.958;6.770;2022-09-09T14:52:45;20.00;99.90
2647;DHT22;1333;50.958;6.770;2022-09-09T14:55:10;20.20;99.90
2647;DHT22;1333;50.958;6.770;2022-09-09T14:57:36;20.30;99.90
2647;DHT22;1333;50.958;6.770;2022-09-09T15:00:06;20.30;99.90
2647;DHT22;1333;50.958;6.770;2022-09-09T15:02:32;20.50;99.90
2647;DHT22;1333;50.958;6.770;2022-09-09T15:04:58;20.70;99.90
2647;DHT22;1333;50.958;6.770;2022-09-09T15:07:24;20.70;99.90
2647;DHT22;1333;50.958;6.770;2022-09-09T15:09:50;20.80;99.90
2647;DHT22;1333;50.958;6.770;2022-09-09T15:12:16;20.90;99.90
2647;DHT22;1333;50.958;6.770;2022-09-09T15:14:44;20.80;99.90
2647;DHT22;1333;50.958;6.770;2022-09-09T15:17:10;20.90;99.90
2647;DHT22;1333;50.958;6.770;2022-09-09T15:19:35;20.90;99.90
2647;DHT22;1333;50.958;6.770;2022-09-09T15:22:02;20.90;99.90
2647;DHT22;1333;50.958;6.770;2022-09-09T15:24:27;20.90;99.90
2647;DHT22;1333;50.958;6.770;2022-09-09T15:26:53;20.90;99.90
2647;DHT22;1333;50.958;6.770;2022-09-09T15:29:19;21.00;99.90
2647;DHT22;1333;50.958;6.770;2022-09-09T15:31:45;20.90;99.90
2647;DHT22;1333;50.958;6.770;2022-09-09T15:34:10;20.90;99.90
2647;DHT22;1333;50.958;6.770;2022-09-09T15:36:38;20.90;99.90
2647;DHT22;1333;50.958;6.770;2022-09-09T15:39:06;21.00;99.90
2647;DHT22;1333;50.958;6.770;2022-09-09T15:41:32;21.00;99.90
2647;DHT22;1333;50.958;6.770;2022-09-09T15:43:59;21.10;99.90
2647;DHT22;1333;50.958;6.770;2022-09-09T15:46:34;21.10;99.90
2647;DHT22;1333;50.958;6.770;2022-09-09T15:49:18;21.20;99.90
2647;DHT22;1333;50.958;6.770;2022-09-09T15:51:46;21.10;99.90
2647;DHT22;1333;50.958;6.770;2022-09-09T15:54:17;21.10;99.90
2647;DHT22;1333;50.958;6.770;2022-09-09T15:56:45;21.00;99.90
2647;DHT22;1333;50.958;6.770;2022-09-09T15:59:11;20.90;99.90
2647;DHT22;1333;50.958;6.770;2022-09-09T16:01:37;20.70;99.90
2647;DHT22;1333;50.958;6.770;2022-09-09T16:04:04;20.70;99.90
2647;DHT22;1333;50.958;6.770;2022-09-09T16:06:30;20.50;99.90
2647;DHT22;1333;50.958;6.770;2022-09-09T16:08:57;20.40;99.90
2647;DHT22;1333;50.958;6.770;2022-09-09T16:11:31;20.10;99.90
2647;DHT22;1333;50.958;6.770;2022-09-09T16:13:57;20.00;99.90
2647;DHT22;1333;50.958;6.770;2022-09-09T16:16:26;19.90;99.90
2647;DHT22;1333;50.958;6.770;2022-09-09T16:18:54;19.80;99.90
2647;DHT22;1333;50.958;6.770;2022-09-09T16:21:35;19.60;99.90
2647;DHT22;1333;50.958;6.770;2022-09-09T16:24:02;19.60;99.90
2647;DHT22;1333;50.958;6.770;2022-09-09T16:26:30;19.50;99.90
2647;DHT22;1333;50.958;6.770;2022-09-09T16:28:56;19.50;99.90
2647;DHT22;1333;50.958;6.770;2022-09-09T16:31:24;19.50;99.90
2647;DHT22;1333;50.958;6.770;2022-09-09T16:33:51;19.50;99.90
2647;DHT22;1333;50.958;6.770;2022-09-09T16:36:19;19.40;99.90
2647;DHT22;1333;50.958;6.770;2022-09-09T16:38:46;19.40;99.90
2647;DHT22;1333;50.958;6.770;2022-09-09T16:41:12;19.40;99.90
2647;DHT22;1333;50.958;6.770;2022-09-09T16:43:39;19.30;99.90
2647;DHT22;1333;50.958;6.770;2022-09-09T16:46:17;19.30;99.90
2647;DHT22;1333;50.958;6.770;2022-09-09T16:48:44;19.30;99.90
2647;DHT22;1333;50.958;6.770;2022-09-09T16:51:18;19.40;99.90
2647;DHT22;1333;50.958;6.770;2022-09-09T16:53:44;19.40;99.90
2647;DHT22;1333;50.958;6.770;2022-09-09T16:56:16;19.30;99.90
2647;DHT22;1333;50.958;6.770;2022-09-09T16:58:42;19.20;99.90
2647;DHT22;1333;50.958;6.770;2022-09-09T17:01:11;19.20;99.90
2647;DHT22;1333;50.958;6.770;2022-09-09T17:03:40;19.10;99.90
2647;DHT22;1333;50.958;6.770;2022-09-09T17:06:10;19.10;99.90
2647;DHT22;1333;50.958;6.770;2022-09-09T17:08:37;19.00;99.90
2647;DHT22;1333;50.958;6.770;2022-09-09T17:11:10;19.00;99.90
2647;DHT22;1333;50.958;6.770;2022-09-09T17:13:39;19.00;99.90
2647;DHT22;1333;50.958;6.770;2022-09-09T17:16:04;18.90;99.90
2647;DHT22;1333;50.958;6.770;2022-09-09T17:18:30;18.90;99.90
2647;DHT22;1333;50.958;6.770;2022-09-09T17:21:05;18.80;99.90
2647;DHT22;1333;50.958;6.770;2022-09-09T17:23:32;18.70;99.90
2647;DHT22;1333;50.958;6.770;2022-09-09T17:25:59;18.60;99.90
2647;DHT22;1333;50.958;6.770;2022-09-09T17:28:25;18.50;99.90
2647;DHT22;1333;50.958;6.770;2022-09-09T17:30:57;18.50;99.90
2647;DHT22;1333;50.958;6.770;2022-09-09T17:33:22;18.50;99.90
2647;DHT22;1333;50.958;6.770;2022-09-09T17:35:48;18.40;99.90
2647;DHT22;1333;50.958;6.770;2022-09-09T17:38:14;18.30;99.90
2647;DHT22;1333;50.958;6.770;2022-09-09T17:40:40;18.30;99.90
2647;DHT22;1333;50.958;6.770;2022-09-09T17:43:05;18.30;99.90
2647;DHT22;1333;50.958;6.770;2022-09-09T17:45:31;18.10;99.90
2647;DHT22;1333;50.958;6.770;2022-09-09T17:47:57;18.10;99.90
2647;DHT22;1333;50.958;6.770;2022-09-09T17:50:22;18.00;99.90
2647;DHT22;1333;50.958;6.770;2022-09-09T17:52:48;17.90;99.90
2647;DHT22;1333;50.958;6.770;2022-09-09T17:55:13;17.80;99.90
2647;DHT22;1333;50.958;6.770;2022-09-09T17:57:40;17.80;99.90
2647;DHT22;1333;50.958;6.770;2022-09-09T18:00:07;17.80;99.90
2647;DHT22;1333;50.958;6.770;2022-09-09T18:02:33;17.70;99.90
2647;DHT22;1333;50.958;6.770;2022-09-09T18:04:59;17.70;99.90
2647;DHT22;1333;50.958;6.770;2022-09-09T18:07:26;17.70;99.90